PAL002 RPMD-RPLL
Flight info
| Callsign | PAL002 |
|---|---|
| Flight time | N/A |
| Altitude | 38000 |
| Route | ANKIN3R ANKIN B473 LAIYA LAIYA5R |
| Aircraft | A321/M-SDE3FGHIRWY/LB1 |
Departure
| Time | N/A |
|---|---|
| Airport | Francisco Bangoy International Airport (RPMD) |
Arrival
| Time | 2026-05-05 02:11 |
|---|---|
| Airport | Ninoy Aquino International Airport (RPLL) |
| Time | Latitude | Longitude | Altitude | Speed | Heading |
|---|---|---|---|---|---|
| 2026-05-05 01:17 | 10.48311 | 123.40908 | 37922 ft | 431 kts | 330° |
| 2026-05-05 01:17 | 10.50876 | 123.39409 | 37922 ft | 431 kts | 330° |
| 2026-05-05 01:18 | 10.56136 | 123.36334 | 37922 ft | 431 kts | 330° |
| 2026-05-05 01:18 | 10.61357 | 123.33281 | 37922 ft | 431 kts | 330° |
| 2026-05-05 01:19 | 10.66614 | 123.30209 | 37922 ft | 431 kts | 330° |
| 2026-05-05 01:19 | 10.71859 | 123.27144 | 37922 ft | 431 kts | 330° |
| 2026-05-05 01:20 | 10.77077 | 123.24092 | 37922 ft | 431 kts | 330° |
| 2026-05-05 01:20 | 10.82321 | 123.21018 | 37922 ft | 431 kts | 330° |
| 2026-05-05 01:21 | 10.87581 | 123.17933 | 37922 ft | 431 kts | 330° |
| 2026-05-05 01:21 | 10.92824 | 123.14855 | 37924 ft | 431 kts | 330° |
| 2026-05-05 01:22 | 10.98054 | 123.11787 | 37928 ft | 431 kts | 330° |
| 2026-05-05 01:22 | 11.03301 | 123.08710 | 37935 ft | 431 kts | 329° |
| 2026-05-05 01:23 | 11.08537 | 123.05637 | 37943 ft | 431 kts | 329° |
| 2026-05-05 01:23 | 11.13786 | 123.02553 | 37947 ft | 431 kts | 329° |
| 2026-05-05 01:24 | 11.19005 | 122.99483 | 37948 ft | 431 kts | 329° |
| 2026-05-05 01:24 | 11.24252 | 122.96397 | 37949 ft | 431 kts | 329° |
| 2026-05-05 01:25 | 11.29475 | 122.93323 | 37949 ft | 431 kts | 329° |
| 2026-05-05 01:25 | 11.34741 | 122.90224 | 37949 ft | 431 kts | 329° |
| 2026-05-05 01:26 | 11.39956 | 122.87156 | 37949 ft | 431 kts | 329° |
| 2026-05-05 01:26 | 11.45177 | 122.84081 | 37949 ft | 431 kts | 329° |
| 2026-05-05 01:27 | 11.50422 | 122.80988 | 37949 ft | 431 kts | 329° |
| 2026-05-05 01:27 | 11.55650 | 122.77904 | 37949 ft | 431 kts | 329° |
| 2026-05-05 01:28 | 11.60840 | 122.74750 | 37948 ft | 431 kts | 326° |
| 2026-05-05 01:28 | 11.65889 | 122.71367 | 37949 ft | 431 kts | 326° |
| 2026-05-05 01:29 | 11.70937 | 122.67960 | 37949 ft | 431 kts | 326° |
| 2026-05-05 01:29 | 11.76000 | 122.64547 | 37949 ft | 431 kts | 326° |
| 2026-05-05 01:30 | 11.81026 | 122.61160 | 37949 ft | 431 kts | 326° |
| 2026-05-05 01:30 | 11.86075 | 122.57757 | 37949 ft | 431 kts | 326° |
| 2026-05-05 01:31 | 11.91124 | 122.54352 | 37949 ft | 431 kts | 326° |
| 2026-05-05 01:31 | 11.96165 | 122.50951 | 37949 ft | 431 kts | 326° |
| 2026-05-05 01:32 | 12.01225 | 122.47536 | 37949 ft | 431 kts | 326° |
| 2026-05-05 01:32 | 12.06245 | 122.44146 | 37949 ft | 431 kts | 326° |
| 2026-05-05 01:33 | 12.11312 | 122.40723 | 37949 ft | 431 kts | 326° |
| 2026-05-05 01:33 | 12.16346 | 122.37322 | 37949 ft | 431 kts | 326° |
| 2026-05-05 01:34 | 12.21392 | 122.33910 | 37949 ft | 431 kts | 326° |
| 2026-05-05 01:34 | 12.26405 | 122.30518 | 37949 ft | 430 kts | 326° |
| 2026-05-05 01:35 | 12.31456 | 122.27097 | 37949 ft | 430 kts | 326° |
| 2026-05-05 01:35 | 12.36470 | 122.23701 | 37949 ft | 430 kts | 326° |
| 2026-05-05 01:36 | 12.41488 | 122.20245 | 37949 ft | 430 kts | 325° |
| 2026-05-05 01:36 | 12.45646 | 122.17355 | 37949 ft | 430 kts | 325° |
| 2026-05-05 01:37 | 12.51466 | 122.13309 | 37949 ft | 430 kts | 325° |
| 2026-05-05 01:37 | 12.56472 | 122.09829 | 37949 ft | 430 kts | 325° |
| 2026-05-05 01:38 | 12.61473 | 122.06351 | 37949 ft | 430 kts | 325° |
| 2026-05-05 01:38 | 12.66474 | 122.02872 | 37949 ft | 430 kts | 325° |
| 2026-05-05 01:39 | 12.71488 | 121.99384 | 37949 ft | 430 kts | 325° |
| 2026-05-05 01:39 | 12.76490 | 121.95901 | 37949 ft | 430 kts | 325° |
| 2026-05-05 01:40 | 12.81466 | 121.92435 | 37949 ft | 430 kts | 325° |
| 2026-05-05 01:40 | 12.86453 | 121.88959 | 37949 ft | 430 kts | 325° |
| 2026-05-05 01:41 | 12.91468 | 121.85462 | 37949 ft | 430 kts | 325° |
| 2026-05-05 01:41 | 12.96457 | 121.81981 | 37949 ft | 430 kts | 325° |
| 2026-05-05 01:42 | 13.01432 | 121.78509 | 37948 ft | 432 kts | 325° |
| 2026-05-05 01:42 | 13.06463 | 121.74993 | 37948 ft | 434 kts | 325° |
| 2026-05-05 01:43 | 13.11459 | 121.71500 | 37948 ft | 436 kts | 326° |
| 2026-05-05 01:43 | 13.16482 | 121.67990 | 37705 ft | 424 kts | 326° |
| 2026-05-05 01:44 | 13.18911 | 121.66293 | 36700 ft | 423 kts | 326° |
| 2026-05-05 01:44 | 13.21403 | 121.64551 | 35051 ft | 436 kts | 326° |
| 2026-05-05 01:44 | 13.23905 | 121.62801 | 33262 ft | 448 kts | 326° |
| 2026-05-05 01:44 | 13.26503 | 121.60986 | 31534 ft | 453 kts | 326° |
| 2026-05-05 01:45 | 13.29087 | 121.59180 | 30328 ft | 444 kts | 325° |
| 2026-05-05 01:45 | 13.31552 | 121.57456 | 29879 ft | 421 kts | 325° |
| 2026-05-05 01:45 | 13.33963 | 121.55766 | 29489 ft | 416 kts | 325° |
| 2026-05-05 01:45 | 13.36341 | 121.54099 | 29052 ft | 414 kts | 325° |
| 2026-05-05 01:46 | 13.38727 | 121.52426 | 28585 ft | 406 kts | 325° |
| 2026-05-05 01:46 | 13.40990 | 121.50840 | 28118 ft | 397 kts | 324° |
| 2026-05-05 01:46 | 13.42469 | 121.49802 | 27808 ft | 391 kts | 324° |
| 2026-05-05 01:46 | 13.43946 | 121.48766 | 27496 ft | 387 kts | 324° |
| 2026-05-05 01:47 | 13.46916 | 121.46683 | 26818 ft | 375 kts | 324° |
| 2026-05-05 01:47 | 13.49087 | 121.45160 | 26243 ft | 363 kts | 324° |
| 2026-05-05 01:47 | 13.51144 | 121.43716 | 25852 ft | 355 kts | 324° |
| 2026-05-05 01:47 | 13.53172 | 121.42291 | 25428 ft | 348 kts | 324° |
| 2026-05-05 01:48 | 13.55204 | 121.40862 | 25104 ft | 346 kts | 324° |
| 2026-05-05 01:48 | 13.57174 | 121.39478 | 24857 ft | 335 kts | 323° |
| 2026-05-05 01:48 | 13.59066 | 121.38105 | 24498 ft | 332 kts | 322° |
| 2026-05-05 01:48 | 13.60971 | 121.36684 | 24089 ft | 338 kts | 322° |
| 2026-05-05 01:49 | 13.62884 | 121.35252 | 23678 ft | 337 kts | 322° |
| 2026-05-05 01:49 | 13.64154 | 121.34302 | 23425 ft | 334 kts | 322° |
| 2026-05-05 01:49 | 13.66659 | 121.32432 | 22941 ft | 329 kts | 322° |
| 2026-05-05 01:49 | 13.68499 | 121.31060 | 22464 ft | 320 kts | 322° |
| 2026-05-05 01:50 | 13.70293 | 121.29722 | 21955 ft | 316 kts | 321° |
| 2026-05-05 01:50 | 13.72094 | 121.28378 | 21349 ft | 315 kts | 321° |
| 2026-05-05 01:50 | 13.73864 | 121.27057 | 20738 ft | 314 kts | 321° |
| 2026-05-05 01:50 | 13.75657 | 121.25718 | 20131 ft | 320 kts | 321° |
| 2026-05-05 01:51 | 13.77464 | 121.24368 | 19531 ft | 325 kts | 321° |
| 2026-05-05 01:51 | 13.79320 | 121.22984 | 18927 ft | 325 kts | 321° |
| 2026-05-05 01:51 | 13.81168 | 121.21605 | 18316 ft | 321 kts | 321° |
| 2026-05-05 01:51 | 13.82967 | 121.20264 | 17714 ft | 318 kts | 321° |
| 2026-05-05 01:52 | 13.84770 | 121.18919 | 17104 ft | 314 kts | 321° |
| 2026-05-05 01:52 | 13.86539 | 121.17597 | 16500 ft | 309 kts | 322° |
| 2026-05-05 01:52 | 13.88257 | 121.16314 | 15900 ft | 303 kts | 322° |
| 2026-05-05 01:52 | 13.89977 | 121.15028 | 15286 ft | 297 kts | 322° |
| 2026-05-05 01:53 | 13.91621 | 121.13799 | 14688 ft | 292 kts | 322° |
| 2026-05-05 01:53 | 13.93265 | 121.12569 | 14080 ft | 287 kts | 322° |
| 2026-05-05 01:53 | 13.94883 | 121.11359 | 13472 ft | 283 kts | 322° |
| 2026-05-05 01:53 | 13.96474 | 121.10167 | 12867 ft | 279 kts | 323° |
| 2026-05-05 01:54 | 13.98037 | 121.08996 | 12322 ft | 272 kts | 323° |
| 2026-05-05 01:54 | 13.99579 | 121.07845 | 11718 ft | 269 kts | 323° |
| 2026-05-05 01:54 | 14.00577 | 121.07098 | 11318 ft | 267 kts | 323° |
| 2026-05-05 01:54 | 14.02584 | 121.05594 | 10625 ft | 258 kts | 323° |
| 2026-05-05 01:55 | 14.04022 | 121.04519 | 10354 ft | 252 kts | 323° |
| 2026-05-05 01:55 | 14.05437 | 121.03461 | 10108 ft | 247 kts | 324° |
| 2026-05-05 01:55 | 14.06823 | 121.02425 | 9889 ft | 241 kts | 324° |
| 2026-05-05 01:55 | 14.08170 | 121.01415 | 9698 ft | 235 kts | 324° |
| 2026-05-05 01:56 | 14.09535 | 121.00394 | 9643 ft | 238 kts | 324° |
| 2026-05-05 01:56 | 14.10879 | 120.99389 | 9648 ft | 238 kts | 324° |
| 2026-05-05 01:56 | 14.12233 | 120.98376 | 9710 ft | 237 kts | 324° |
| 2026-05-05 01:56 | 14.13579 | 120.97369 | 10077 ft | 239 kts | 324° |
| 2026-05-05 01:57 | 14.14935 | 120.96355 | 10114 ft | 241 kts | 324° |
| 2026-05-05 01:57 | 14.16299 | 120.95332 | 9745 ft | 238 kts | 324° |
| 2026-05-05 01:57 | 14.17224 | 120.94678 | 9539 ft | 238 kts | 327° |
| 2026-05-05 01:57 | 14.19102 | 120.93519 | 9132 ft | 229 kts | 330° |
| 2026-05-05 01:58 | 14.20493 | 120.92696 | 8823 ft | 224 kts | 330° |
| 2026-05-05 01:58 | 14.21842 | 120.91903 | 8523 ft | 223 kts | 331° |
| 2026-05-05 01:58 | 14.23212 | 120.91097 | 8217 ft | 222 kts | 330° |
| 2026-05-05 01:58 | 14.24551 | 120.90305 | 7918 ft | 221 kts | 331° |
| 2026-05-05 01:59 | 14.25760 | 120.89326 | 7628 ft | 223 kts | 311° |
| 2026-05-05 01:59 | 14.26396 | 120.87852 | 7347 ft | 228 kts | 283° |
| 2026-05-05 01:59 | 14.26251 | 120.86205 | 7070 ft | 232 kts | 253° |
| 2026-05-05 01:59 | 14.25515 | 120.84714 | 6891 ft | 233 kts | 242° |
| 2026-05-05 02:00 | 14.24661 | 120.83234 | 6775 ft | 241 kts | 241° |
| 2026-05-05 02:00 | 14.23783 | 120.81722 | 6647 ft | 242 kts | 241° |
| 2026-05-05 02:00 | 14.22920 | 120.80209 | 6522 ft | 242 kts | 242° |
| 2026-05-05 02:00 | 14.22078 | 120.78680 | 6392 ft | 242 kts | 244° |
| 2026-05-05 02:01 | 14.21756 | 120.76994 | 6240 ft | 238 kts | 277° |
| 2026-05-05 02:01 | 14.22381 | 120.75442 | 6113 ft | 233 kts | 310° |
| 2026-05-05 02:01 | 14.23647 | 120.74434 | 6000 ft | 230 kts | 332° |
| 2026-05-05 02:01 | 14.25069 | 120.73628 | 5876 ft | 230 kts | 334° |
| 2026-05-05 02:02 | 14.26484 | 120.72845 | 5751 ft | 229 kts | 333° |
| 2026-05-05 02:02 | 14.27910 | 120.72039 | 5624 ft | 228 kts | 333° |
| 2026-05-05 02:02 | 14.29313 | 120.71225 | 5496 ft | 230 kts | 333° |
| 2026-05-05 02:02 | 14.30736 | 120.70440 | 5366 ft | 229 kts | 339° |
| 2026-05-05 02:03 | 14.32240 | 120.70290 | 5225 ft | 225 kts | 11° |
| 2026-05-05 02:03 | 14.33179 | 120.70686 | 5127 ft | 224 kts | 32° |
| 2026-05-05 02:03 | 14.34463 | 120.72340 | 4940 ft | 225 kts | 59° |
| 2026-05-05 02:03 | 14.35223 | 120.73756 | 4774 ft | 224 kts | 60° |
| 2026-05-05 02:04 | 14.35988 | 120.75184 | 4537 ft | 223 kts | 60° |
| 2026-05-05 02:04 | 14.36503 | 120.76133 | 4356 ft | 221 kts | 60° |
| 2026-05-05 02:04 | 14.37247 | 120.77490 | 4080 ft | 214 kts | 59° |
| 2026-05-05 02:04 | 14.38225 | 120.79252 | 3717 ft | 205 kts | 59° |
| 2026-05-05 02:05 | 14.38931 | 120.80531 | 3451 ft | 200 kts | 59° |
| 2026-05-05 02:05 | 14.39615 | 120.81755 | 3316 ft | 185 kts | 60° |
| 2026-05-05 02:05 | 14.40226 | 120.82845 | 3281 ft | 165 kts | 60° |
| 2026-05-05 02:05 | 14.40775 | 120.83842 | 3228 ft | 147 kts | 60° |
| 2026-05-05 02:06 | 14.41255 | 120.84712 | 3137 ft | 132 kts | 59° |
| 2026-05-05 02:06 | 14.41709 | 120.85530 | 3064 ft | 129 kts | 59° |
| 2026-05-05 02:06 | 14.42166 | 120.86346 | 2985 ft | 128 kts | 60° |
| 2026-05-05 02:06 | 14.42608 | 120.87151 | 2895 ft | 128 kts | 59° |
| 2026-05-05 02:07 | 14.43063 | 120.87959 | 2748 ft | 129 kts | 60° |
| 2026-05-05 02:07 | 14.43508 | 120.88769 | 2497 ft | 127 kts | 59° |
| 2026-05-05 02:07 | 14.43956 | 120.89561 | 2322 ft | 127 kts | 61° |
| 2026-05-05 02:07 | 14.44404 | 120.90373 | 2148 ft | 127 kts | 60° |
| 2026-05-05 02:08 | 14.44850 | 120.91171 | 1976 ft | 127 kts | 61° |
| 2026-05-05 02:08 | 14.45294 | 120.91968 | 1805 ft | 126 kts | 62° |
| 2026-05-05 02:08 | 14.45734 | 120.92770 | 1638 ft | 126 kts | 59° |
| 2026-05-05 02:08 | 14.46174 | 120.93562 | 1500 ft | 126 kts | 61° |
| 2026-05-05 02:09 | 14.46619 | 120.94349 | 1347 ft | 125 kts | 60° |
| 2026-05-05 02:09 | 14.47055 | 120.95137 | 1183 ft | 125 kts | 59° |
| 2026-05-05 02:09 | 14.47497 | 120.95921 | 1016 ft | 125 kts | 60° |
| 2026-05-05 02:09 | 14.47936 | 120.96706 | 853 ft | 124 kts | 60° |
| 2026-05-05 02:10 | 14.48386 | 120.97479 | 699 ft | 123 kts | 59° |
| 2026-05-05 02:10 | 14.48836 | 120.98254 | 561 ft | 123 kts | 62° |
| 2026-05-05 02:10 | 14.49250 | 120.99052 | 392 ft | 123 kts | 59° |
| 2026-05-05 02:10 | 14.49684 | 120.99822 | 208 ft | 122 kts | 62° |
| 2026-05-05 02:11 | 14.50104 | 121.00575 | 91 ft | 116 kts | 63° |
| 2026-05-05 02:11 | 14.50453 | 121.01215 | 84 ft | 78 kts | 61° |
| 2026-05-05 02:11 | 14.50643 | 121.01559 | 84 ft | 34 kts | 59° |
| 2026-05-05 02:11 | 14.50793 | 121.01737 | 84 ft | 31 kts | 37° |
| 2026-05-05 02:12 | 14.50896 | 121.01780 | 84 ft | 13 kts | 358° |
| 2026-05-05 02:12 | 14.50994 | 121.01903 | 84 ft | 11 kts | 62° |
| 2026-05-05 02:12 | 14.51037 | 121.01979 | 84 ft | 11 kts | 48° |
| 2026-05-05 02:13 | 14.51107 | 121.01950 | 84 ft | 12 kts | 317° |
| 2026-05-05 02:13 | 14.51172 | 121.01884 | 84 ft | 13 kts | 315° |
| 2026-05-05 02:13 | 14.51240 | 121.01814 | 84 ft | 14 kts | 315° |
| 2026-05-05 02:13 | 14.51324 | 121.01795 | 84 ft | 14 kts | 42° |
| 2026-05-05 02:14 | 14.51375 | 121.01846 | 84 ft | 9 kts | 45° |
| 2026-05-05 02:14 | 14.51389 | 121.01860 | 84 ft | 0 kts | 45° |